Time;durP1;ratioP1;P1;durP2;ratioP2;P2;SDS_P1;SDS_P2;PMS_P1;PMS_P2;Temp;Humidity;BMP_temperature;BMP_pressure;BME280_temperature;BME280_humidity;BME280_pressure;Samples;Min_cycle;Max_cycle;Signal;HPM_P1;HPM_P2
2021/10/18 00:00:43;;;;;;;12.88;7.09;;;;;;;;;;352874;150;857281;-59
2021/10/18 00:01:46;;;;;;;17.82;7.41;;;;;;;;;;355822;147;858516;-59
2021/10/18 00:02:48;;;;;;;15.41;8.02;;;;;;;;;;356794;149;858340;-58
2021/10/18 00:03:50;;;;;;;17.25;7.30;;;;;;;;;;358438;150;865153;-58
2021/10/18 00:04:51;;;;;;;22.37;9.75;;;;;;;;;;353564;147;866149;-59
2021/10/18 00:05:53;;;;;;;16.04;7.31;;;;;;;;;;356760;149;865541;-58
2021/10/18 00:06:54;;;;;;;13.01;7.38;;;;;;;;;;357582;148;861093;-59
2021/10/18 00:07:56;;;;;;;18.67;7.96;;;;;;;;;;352977;149;866660;-58
2021/10/18 00:08:58;;;;;;;15.35;6.91;;;;;;;;;;351765;150;857537;-58
2021/10/18 00:10:00;;;;;;;17.33;7.80;;;;;;;;;;353237;150;866015;-58
2021/10/18 00:11:01;;;;;;;17.29;8.26;;;;;;;;;;348713;151;859190;-58
2021/10/18 00:12:03;;;;;;;17.24;7.60;;;;;;;;;;354720;148;858157;-56
2021/10/18 00:13:05;;;;;;;19.04;7.85;;;;;;;;;;356168;149;859491;-58
2021/10/18 00:14:07;;;;;;;15.38;7.45;;;;;;;;;;355474;151;859046;-58
2021/10/18 00:15:09;;;;;;;16.30;7.31;;;;;;;;;;352418;147;865189;-58
2021/10/18 00:16:11;;;;;;;16.67;7.57;;;;;;;;;;354563;149;857368;-58
2021/10/18 00:17:12;;;;;;;14.61;7.99;;;;;;;;;;355868;151;858592;-58
2021/10/18 00:18:14;;;;;;;15.84;7.24;;;;;;;;;;350455;151;866643;-58
2021/10/18 00:19:16;;;;;;;14.85;7.30;;;;;;;;;;353730;149;858095;-58
2021/10/18 00:20:19;;;;;;;13.37;7.24;;;;;;;;;;354466;151;865060;-58
2021/10/18 00:21:20;;;;;;;16.36;7.56;;;;;;;;;;354520;151;859509;-59
2021/10/18 00:22:22;;;;;;;13.54;7.09;;;;;;;;;;351072;151;861919;-58
2021/10/18 00:23:23;;;;;;;15.53;7.58;;;;;;;;;;354584;149;865924;-59
2021/10/18 00:24:25;;;;;;;13.68;6.79;;;;;;;;;;353546;151;857510;-59
2021/10/18 00:25:27;;;;;;;18.02;8.24;;;;;;;;;;352915;151;859502;-59
2021/10/18 00:26:28;;;;;;;14.91;7.16;;;;;;;;;;350333;150;857935;-58
2021/10/18 00:27:30;;;;;;;14.00;7.19;;;;;;;;;;354454;149;865041;-58
2021/10/18 00:28:31;;;;;;;14.26;7.01;;;;;;;;;;355839;149;857532;-59
2021/10/18 00:29:33;;;;;;;15.34;7.54;;;;;;;;;;353046;150;857410;-58
2021/10/18 00:37:09;;;;;;;13.44;6.66;;;;;;;4.62;59.61;100198.97;372560;142;882077;-58
2021/10/18 00:38:11;;;;;;;15.69;7.37;;;;;;;4.52;59.83;100197.05;360893;147;857106;-58
2021/10/18 00:39:13;;;;;;;16.18;7.26;;;;;;;4.53;59.88;100198.77;365536;146;858177;-58
2021/10/18 00:40:14;;;;;;;17.28;6.99;;;;;;;4.51;59.84;100193.63;365429;146;865867;-58
2021/10/18 00:41:17;;;;;;;15.48;7.49;;;;;;;4.51;59.99;100196.20;365341;146;857233;-60
2021/10/18 00:42:19;;;;;;;13.96;7.30;;;;;;;4.51;59.99;100196.20;365087;147;864977;-58
2021/10/18 00:43:21;;;;;;;12.63;7.21;;;;;;;4.57;59.82;100198.00;364213;146;860492;-59
2021/10/18 00:44:23;;;;;;;17.13;7.75;;;;;;;4.56;60.01;100196.27;365271;146;857281;-58
2021/10/18 00:45:25;;;;;;;19.27;7.63;;;;;;;4.55;59.93;100188.56;364353;147;857298;-58
2021/10/18 00:46:27;;;;;;;16.37;7.77;;;;;;;4.57;60.29;100192.87;365168;147;857247;-58
2021/10/18 00:47:29;;;;;;;17.50;7.59;;;;;;;4.60;60.45;100192.94;363821;146;856587;-61
2021/10/18 00:48:31;;;;;;;15.09;8.03;;;;;;;4.64;60.11;100193.88;363730;147;865581;-58
2021/10/18 00:49:32;;;;;;;17.39;8.21;;;;;;;4.68;59.95;100193.95;362112;147;866133;-58
2021/10/18 00:50:34;;;;;;;17.59;7.85;;;;;;;4.68;59.95;100193.95;364132;146;865884;-58
2021/10/18 00:51:36;;;;;;;15.91;7.84;;;;;;;4.76;59.71;100191.56;365350;146;857390;-57
2021/10/18 00:52:38;;;;;;;14.25;7.31;;;;;;;4.76;59.47;100191.56;365634;146;865853;-57
2021/10/18 00:53:40;;;;;;;12.64;7.34;;;;;;;4.79;59.81;100191.62;363648;147;866762;-57
2021/10/18 00:54:41;;;;;;;13.37;7.39;;;;;;;4.82;59.76;100190.83;362638;147;865368;-57
2021/10/18 00:55:43;;;;;;;12.47;7.49;;;;;;;4.86;59.45;100194.30;362443;145;857286;-57
2021/10/18 00:56:45;;;;;;;20.89;7.29;;;;;;;4.87;59.21;100190.91;363507;145;865148;-57
2021/10/18 00:57:47;;;;;;;15.35;6.94;;;;;;;4.89;59.14;100191.80;362460;145;860473;-58
2021/10/18 00:58:49;;;;;;;18.42;7.99;;;;;;;4.90;59.19;100196.97;363813;146;865867;-57
2021/10/18 00:59:51;;;;;;;18.79;8.32;;;;;;;4.92;59.27;100191.85;366037;147;857369;-57
2021/10/18 01:00:53;;;;;;;24.72;11.28;;;;;;;4.96;59.30;100183.37;363923;144;857221;-58
2021/10/18 01:01:55;;;;;;;24.89;11.21;;;;;;;4.95;59.24;100182.53;363173;145;857478;-57
2021/10/18 01:02:57;;;;;;;21.79;9.86;;;;;;;4.96;59.31;100181.69;365540;145;857160;-58
2021/10/18 01:03:58;;;;;;;14.57;7.45;;;;;;;4.98;59.43;100181.70;363081;145;864900;-58
2021/10/18 01:05:00;;;;;;;18.34;8.89;;;;;;;5.00;59.51;100185.16;363432;145;865064;-58
2021/10/18 01:06:02;;;;;;;19.92;8.70;;;;;;;4.97;58.98;100177.41;364700;145;865660;-57
2021/10/18 01:07:04;;;;;;;19.42;9.04;;;;;;;4.95;58.95;100174.83;365543;146;858667;-58
2021/10/18 01:08:06;;;;;;;14.55;7.84;;;;;;;5.00;58.92;100174.90;363847;146;859157;-58
2021/10/18 01:09:08;;;;;;;14.75;7.60;;;;;;;5.04;59.03;100173.27;359008;148;857248;-57
2021/10/18 01:10:10;;;;;;;15.39;7.59;;;;;;;5.08;59.09;100173.34;360544;145;857313;-58
2021/10/18 01:11:12;;;;;;;17.91;8.18;;;;;;;5.12;59.11;100177.69;366810;145;857745;-58
2021/10/18 01:12:14;;;;;;;17.00;7.80;;;;;;;5.16;59.17;100177.74;363479;145;865099;-60
2021/10/18 01:13:15;;;;;;;19.82;8.13;;;;;;;5.16;59.17;100177.74;365249;146;865192;-61
2021/10/18 01:14:17;;;;;;;16.31;7.69;;;;;;;5.22;58.34;100171.03;365002;146;857397;-60
2021/10/18 01:15:19;;;;;;;16.79;7.38;;;;;;;5.23;58.30;100170.19;362243;145;857478;-60
2021/10/18 01:16:23;;;;;;;17.37;7.79;;;;;;;5.26;58.59;100179.63;362974;145;865031;-60
2021/10/18 01:17:25;;;;;;;15.09;7.54;;;;;;;5.25;58.50;100171.08;365345;147;866090;-60
2021/10/18 01:18:28;;;;;;;18.07;8.91;;;;;;;5.25;58.41;100172.77;363590;146;858229;-60
2021/10/18 01:19:29;;;;;;;14.62;7.63;;;;;;;5.28;58.14;100174.54;363784;145;858835;-60
2021/10/18 01:20:33;;;;;;;12.51;7.34;;;;;;;5.29;58.16;100171.13;363993;145;857321;-60
2021/10/18 01:21:34;;;;;;;15.19;7.46;;;;;;;5.31;58.44;100169.45;365853;145;857276;-57
2021/10/18 01:22:38;;;;;;;15.59;7.77;;;;;;;5.28;58.15;100170.25;365079;145;857792;-57
2021/10/18 01:23:39;;;;;;;15.32;6.89;;;;;;;5.24;58.75;100171.04;362336;145;865000;-57
2021/10/18 01:24:41;;;;;;;15.53;7.32;;;;;;;5.24;58.75;100171.04;362853;147;857219;-58
2021/10/18 01:25:43;;;;;;;16.18;8.05;;;;;;;5.21;59.07;100170.98;365538;145;859179;-58
2021/10/18 01:26:45;;;;;;;21.71;8.25;;;;;;;5.23;59.20;100172.76;366415;145;866370;-57
2021/10/18 01:27:46;;;;;;;14.21;7.79;;;;;;;5.22;59.47;100173.59;360801;145;859196;-58
2021/10/18 01:28:48;;;;;;;12.87;6.73;;;;;;;5.25;59.32;100173.65;360576;146;866887;-58
2021/10/18 01:29:50;;;;;;;13.55;6.63;;;;;;;5.26;59.57;100171.93;363509;145;866481;-58
2021/10/18 01:30:52;;;;;;;15.51;7.62;;;;;;;5.27;59.73;100171.09;367128;145;860721;-58
2021/10/18 01:31:54;;;;;;;16.35;7.65;;;;;;;5.25;59.49;100171.08;362050;146;860096;-58
2021/10/18 01:32:55;;;;;;;19.56;8.19;;;;;;;5.28;59.68;100183.09;363520;145;861020;-58
2021/10/18 01:33:57;;;;;;;16.19;7.35;;;;;;;5.25;59.16;100172.77;363686;146;866950;-58
2021/10/18 01:34:59;;;;;;;18.68;8.34;;;;;;;5.24;59.30;100176.17;363259;145;866565;-58
2021/10/18 01:36:01;;;;;;;14.79;7.17;;;;;;;5.24;59.15;100177.05;362554;145;866466;-58
2021/10/18 01:37:03;;;;;;;11.73;6.66;;;;;;;5.24;59.15;100177.05;364378;145;864969;-57
2021/10/18 01:38:05;;;;;;;16.74;7.20;;;;;;;5.29;59.63;100184.81;361950;145;865070;-57
2021/10/18 01:39:07;;;;;;;15.95;7.39;;;;;;;5.30;59.33;100178.00;363270;146;857310;-58
2021/10/18 01:40:10;;;;;;;16.82;7.35;;;;;;;5.30;59.58;100178.88;363796;144;857254;-57
2021/10/18 01:41:12;;;;;;;16.19;7.21;;;;;;;5.29;59.79;100176.27;359985;146;857216;-57
2021/10/18 01:42:14;;;;;;;13.69;7.39;;;;;;;5.29;59.79;100176.27;360238;145;857369;-58
2021/10/18 01:43:16;;;;;;;16.91;7.11;;;;;;;5.30;59.92;100178.88;364679;145;857289;-58
2021/10/18 01:44:18;;;;;;;18.09;7.91;;;;;;;5.29;60.01;100179.69;365777;145;864969;-58
2021/10/18 01:45:20;;;;;;;12.78;7.12;;;;;;;5.28;59.67;100175.39;364393;147;865026;-57
2021/10/18 01:46:23;;;;;;;13.31;7.72;;;;;;;5.24;59.86;100178.73;361844;146;865071;-58
2021/10/18 01:47:27;;;;;;;15.74;7.07;;;;;;;5.21;60.50;100177.00;363155;145;859027;-58
2021/10/18 01:48:29;;;;;;;15.00;6.91;;;;;;;5.16;60.41;100181.19;361218;146;859402;-58
2021/10/18 01:49:30;;;;;;;14.79;7.66;;;;;;;5.16;60.41;100181.19;365749;145;866352;-57
2021/10/18 01:50:32;;;;;;;13.89;7.22;;;;;;;5.07;60.76;100176.73;362245;145;858708;-57
2021/10/18 01:51:34;;;;;;;14.63;7.24;;;;;;;5.05;60.93;100180.98;361413;146;858887;-58
2021/10/18 01:52:36;;;;;;;12.45;7.23;;;;;;;5.06;61.31;100181.86;364803;145;866276;-58
2021/10/18 01:53:38;;;;;;;16.08;7.41;;;;;;;5.08;61.33;100177.62;364220;145;857973;-58
2021/10/18 01:54:40;;;;;;;13.74;7.75;;;;;;;5.09;60.95;100180.20;362701;145;857302;-58
2021/10/18 01:55:42;;;;;;;13.19;7.78;;;;;;;5.08;60.81;100180.19;366199;146;865225;-57
2021/10/18 01:56:43;;;;;;;19.79;7.71;;;;;;;5.03;60.55;100189.50;366508;146;865166;-58
2021/10/18 01:57:45;;;;;;;16.24;7.34;;;;;;;5.03;60.58;100181.80;362406;145;865104;-57
2021/10/18 01:58:47;;;;;;;17.03;7.11;;;;;;;5.05;60.37;100188.68;362672;145;865311;-58
2021/10/18 01:59:49;;;;;;;14.65;7.07;;;;;;;5.10;61.02;100181.92;363486;146;858839;-58
2021/10/18 02:00:51;;;;;;;15.36;6.81;;;;;;;5.16;60.86;100185.44;362746;145;857906;-57
2021/10/18 02:01:53;;;;;;;15.68;7.79;;;;;;;5.17;60.98;100177.78;368068;144;864975;-58
2021/10/18 02:02:54;;;;;;;16.54;7.82;;;;;;;5.21;60.91;100177.00;364092;145;858475;-58
2021/10/18 02:03:56;;;;;;;14.91;7.41;;;;;;;5.28;61.47;100179.67;363068;146;866141;-58
2021/10/18 02:04:58;;;;;;;15.75;7.74;;;;;;;5.30;61.05;100176.31;366350;145;857166;-57
2021/10/18 02:06:00;;;;;;;14.87;8.14;;;;;;;5.33;60.63;100178.93;366049;145;865000;-58
2021/10/18 02:07:01;;;;;;;14.49;7.94;;;;;;;5.34;60.03;100179.78;365797;145;864992;-60
2021/10/18 02:08:04;;;;;;;16.17;8.24;;;;;;;5.35;60.12;100169.55;361963;145;865107;-60
2021/10/18 02:09:06;;;;;;;19.89;8.51;;;;;;;5.39;59.54;100183.29;363453;145;865104;-58
2021/10/18 02:10:08;;;;;;;13.82;7.71;;;;;;;5.40;59.38;100172.18;364393;145;857431;-58
2021/10/18 02:11:12;;;;;;;15.39;7.47;;;;;;;5.43;59.32;100176.52;363207;145;857463;-58
2021/10/18 02:12:13;;;;;;;14.91;7.66;;;;;;;5.45;59.49;100175.69;362504;145;858647;-59
2021/10/18 02:13:15;;;;;;;20.83;7.71;;;;;;;5.47;59.73;100174.01;363229;145;866628;-58
2021/10/18 02:14:17;;;;;;;17.95;7.39;;;;;;;5.48;60.09;100173.17;363939;145;857229;-59
2021/10/18 02:15:19;;;;;;;12.75;7.05;;;;;;;5.46;60.42;100172.28;363087;145;865119;-58
2021/10/18 02:16:22;;;;;;;14.91;7.51;;;;;;;5.45;60.55;100174.84;365308;145;858177;-59
2021/10/18 02:17:23;;;;;;;16.62;7.45;;;;;;;5.45;60.67;100167.14;361527;145;857244;-58
2021/10/18 02:18:25;;;;;;;18.54;7.91;;;;;;;5.46;60.57;100163.73;363013;145;865116;-58
2021/10/18 02:19:27;;;;;;;15.76;7.96;;;;;;;5.46;60.34;100172.28;362980;145;865152;-58
2021/10/18 02:20:29;;;;;;;14.65;7.47;;;;;;;5.48;60.07;100165.47;361296;145;865055;-58
2021/10/18 02:21:31;;;;;;;16.43;7.78;;;;;;;5.52;59.70;100168.97;364030;146;857462;-58
2021/10/18 07:32:46;;;;;;;15.22;6.29;;;;;;;6.40;62.28;100226.84;368708;142;880582;-58
2021/10/18 07:33:48;;;;;;;15.97;7.47;;;;;;;6.38;62.90;100232.83;361562;144;858526;-59
2021/10/18 07:34:50;;;;;;;16.41;7.69;;;;;;;6.46;62.58;100233.80;363564;144;859827;-57
2021/10/18 07:35:54;;;;;;;16.05;7.85;;;;;;;6.55;62.25;100233.92;358104;146;857160;-57
2021/10/18 07:36:55;;;;;;;18.40;7.87;;;;;;;6.66;62.09;100228.05;358330;147;856820;-57
2021/10/18 07:37:59;;;;;;;14.48;6.93;;;;;;;6.79;60.95;100229.05;357938;147;863951;-58
2021/10/18 07:39:05;;;;;;;18.99;8.48;;;;;;;6.89;60.62;100219.73;358951;147;856204;-56
2021/10/18 07:40:08;;;;;;;19.77;7.92;;;;;;;7.03;60.79;100227.63;356524;148;856665;-59
2021/10/18 07:41:09;;;;;;;15.81;7.69;;;;;;;7.18;59.91;100227.79;360164;147;856308;-59
2021/10/18 07:42:14;;;;;;;16.33;7.61;;;;;;;7.34;60.09;100227.94;358415;148;856249;-57
2021/10/18 07:43:15;;;;;;;18.06;7.70;;;;;;;7.52;60.20;100229.84;357788;147;863872;-58
2021/10/18 07:44:17;;;;;;;23.12;8.00;;;;;;;7.68;59.62;100223.97;359267;147;856227;-58
2021/10/18 07:45:19;;;;;;;16.92;8.31;;;;;;;7.87;59.54;100224.97;358016;148;856168;-55
2021/10/18 07:46:22;;;;;;;14.31;7.74;;;;;;;8.07;59.36;100220.81;358276;148;856434;-57
2021/10/18 07:47:25;;;;;;;14.45;7.33;;;;;;;8.28;58.51;100220.95;359197;147;857288;-60
2021/10/18 07:49:44;;;;;;;17.18;6.89;;;;;;;8.60;55.95;100216.84;369993;142;881682;-60
2021/10/18 07:50:45;;;;;;;13.49;7.38;;;;;;;8.62;55.53;100216.02;362438;145;857355;-58
2021/10/18 07:51:47;;;;;;;15.99;7.70;;;;;;;8.73;54.91;100220.36;363728;145;857584;-58
2021/10/18 07:52:49;;;;;;;17.49;7.51;;;;;;;8.68;54.92;100214.31;358471;149;865093;-58
2021/10/18 07:53:51;;;;;;;14.06;6.85;;;;;;;8.76;54.97;100220.37;356517;149;865118;-59
2021/10/18 07:55:01;;;;;;;14.64;6.86;;;;;;;8.81;54.52;100216.09;364262;145;864985;-60
2021/10/18 07:55:59;;;;;;;14.84;7.78;;;;;;;8.91;54.33;100217.84;356550;148;863942;-58
2021/10/18 07:57:01;;;;;;;18.19;7.08;;;;;;;8.68;54.26;100220.33;358088;148;856128;-58
2021/10/18 07:58:03;;;;;;;16.39;7.85;;;;;;;8.80;54.78;100216.06;360892;147;856509;-59
2021/10/18 07:59:04;;;;;;;13.07;7.28;;;;;;;8.80;54.78;100216.06;358418;148;863793;-59
2021/10/18 08:00:07;;;;;;;13.64;6.68;;;;;;;8.93;53.88;100219.56;356565;148;856081;-59
2021/10/18 08:01:09;;;;;;;12.55;6.66;;;;;;;8.79;54.49;100217.80;357993;147;856389;-59
2021/10/18 08:13:55;;;;;;;12.81;6.73;;;;;;;10.09;51.02;100217.95;370880;142;884234;-60
2021/10/18 08:14:58;;;;;;;18.30;7.61;;;;;;;10.00;51.52;100227.43;361584;146;857195;-61
2021/10/18 08:15:59;;;;;;;11.99;6.82;;;;;;;9.99;51.22;100225.71;361421;146;856896;-60
2021/10/18 08:17:04;;;;;;;13.17;7.01;;;;;;;;;;362819;145;856711;-58
2021/10/18 08:18:05;;;;;;;14.91;6.91;;;;;;;;;;366173;146;864262;-61
2021/10/18 08:19:07;;;;;;;13.58;6.83;;;;;;;;;;362523;146;856646;-60
2021/10/18 08:20:09;;;;;;;13.89;7.14;;;;;;;;;;363503;145;864437;-59
2021/10/18 08:21:11;;;;;;;17.20;7.43;;;;;;;;;;357891;149;863880;-59
2021/10/18 08:22:12;;;;;;;14.63;7.77;;;;;;;;;;363076;146;856161;-59
2021/10/18 08:23:14;;;;;;;15.90;6.59;;;;;;;;;;356323;147;856211;-58
2021/10/18 08:24:15;;;;;;;25.05;7.84;;;;;;;;;;354769;147;864430;-59
2021/10/18 08:25:18;;;;;;;11.41;7.03;;;;;;;;;;362299;144;864533;-61
2021/10/18 08:26:21;;;;;;;13.18;7.04;;;;;;;;;;354655;148;864091;-60
2021/10/18 08:27:22;;;;;;;12.40;7.48;;;;;;;;;;365308;145;856327;-60
2021/10/18 08:28:24;;;;;;;12.79;7.45;;;;;;;;;;364901;144;858454;-60
2021/10/18 08:29:25;;;;;;;14.46;6.93;;;;;;;;;;357424;149;857052;-60
2021/10/18 08:30:27;;;;;;;15.23;7.66;;;;;;;;;;362462;145;863973;-59
2021/10/18 08:31:29;;;;;;;12.87;7.45;;;;;;;;;;362774;146;856159;-60
2021/10/18 08:32:31;;;;;;;18.09;6.86;;;;;;;;;;364771;147;863988;-60
2021/10/18 08:33:32;;;;;;;15.96;7.65;;;;;;;;;;363416;145;857859;-64
2021/10/18 08:34:34;;;;;;;16.77;7.77;;;;;;;;;;361788;144;863848;-61
2021/10/18 08:35:35;;;;;;;19.55;7.55;;;;;;;;;;363412;144;856133;-63
2021/10/18 08:36:37;;;;;;;19.34;7.57;;;;;;;;;;362704;146;856322;-63
2021/10/18 08:40:06;;;;;;;15.08;6.87;;;;;;;;;;342353;153;857106;-62
2021/10/18 08:41:16;;;;;;;15.31;7.40;;;;;;;;;;349702;148;856510;-60
2021/10/18 08:42:17;;;;;;;14.07;7.39;;;;;;;;;;362582;145;863976;-63
2021/10/18 08:44:18;;;;;;;14.58;7.49;;;;;;;;;;360388;145;856125;-64
2021/10/18 08:45:20;;;;;;;13.07;7.32;;;;;;;;;;364606;146;857059;-58
2021/10/18 08:46:22;;;;;;;12.16;6.85;;;;;;;;;;351539;150;864600;-58
2021/10/18 08:47:26;;;;;;;16.47;7.55;;;;;;;;;;362989;145;856897;-58
2021/10/18 08:48:27;;;;;;;18.83;7.92;;;;;;;;;;362205;145;856127;-58
2021/10/18 08:57:05;;;;;;;20.52;8.57;;;;;;;10.17;50.58;100196.37;379579;142;871400;-60
2021/10/18 08:58:08;;;;;;;13.73;7.76;;;;;;;10.23;51.22;100206.70;367376;144;857345;-59
2021/10/18 08:59:09;;;;;;;12.87;6.89;;;;;;;10.25;50.45;100204.98;368500;144;857260;-59
2021/10/18 09:00:32;;;;;;;16.15;7.61;;;;;;;10.36;50.94;100199.78;365744;144;858536;-59
2021/10/18 09:01:44;;;;;;;12.59;7.36;;;;;;;10.35;50.54;100209.27;361053;144;856568;-60
